sensor_id;sensor_type;location;lat;lon;timestamp;temperature;humidity
8707;DHT22;4390;49.302;9.306;2023-06-19T00:02:05;23.90;77.70
8707;DHT22;4390;49.302;9.306;2023-06-19T00:04:32;24.00;77.80
8707;DHT22;4390;49.302;9.306;2023-06-19T00:07:04;23.90;77.90
8707;DHT22;4390;49.302;9.306;2023-06-19T00:09:32;23.90;78.10
8707;DHT22;4390;49.302;9.306;2023-06-19T00:11:59;23.80;78.30
8707;DHT22;4390;49.302;9.306;2023-06-19T00:14:26;23.80;78.20
8707;DHT22;4390;49.302;9.306;2023-06-19T00:16:52;23.80;78.30
8707;DHT22;4390;49.302;9.306;2023-06-19T00:19:19;23.80;78.30
8707;DHT22;4390;49.302;9.306;2023-06-19T00:21:46;23.80;78.40
8707;DHT22;4390;49.302;9.306;2023-06-19T00:24:13;23.80;78.30
8707;DHT22;4390;49.302;9.306;2023-06-19T00:26:39;23.80;78.40
8707;DHT22;4390;49.302;9.306;2023-06-19T00:29:06;23.80;78.30
8707;DHT22;4390;49.302;9.306;2023-06-19T00:31:33;23.80;78.20
8707;DHT22;4390;49.302;9.306;2023-06-19T00:34:03;23.80;78.10
8707;DHT22;4390;49.302;9.306;2023-06-19T00:36:30;23.80;78.10
8707;DHT22;4390;49.302;9.306;2023-06-19T00:38:57;23.80;78.10
8707;DHT22;4390;49.302;9.306;2023-06-19T00:41:25;23.80;78.10
8707;DHT22;4390;49.302;9.306;2023-06-19T00:43:53;23.70;78.10
8707;DHT22;4390;49.302;9.306;2023-06-19T00:46:20;23.80;78.00
8707;DHT22;4390;49.302;9.306;2023-06-19T00:48:48;23.70;78.00
8707;DHT22;4390;49.302;9.306;2023-06-19T00:51:15;23.80;77.90
8707;DHT22;4390;49.302;9.306;2023-06-19T00:53:41;23.80;77.90
8707;DHT22;4390;49.302;9.306;2023-06-19T00:56:08;23.80;77.90
8707;DHT22;4390;49.302;9.306;2023-06-19T00:58:35;23.70;77.90
8707;DHT22;4390;49.302;9.306;2023-06-19T01:01:02;23.70;77.90
8707;DHT22;4390;49.302;9.306;2023-06-19T01:03:35;23.70;77.90
8707;DHT22;4390;49.302;9.306;2023-06-19T01:06:07;23.70;77.90
8707;DHT22;4390;49.302;9.306;2023-06-19T01:08:59;23.70;77.80
8707;DHT22;4390;49.302;9.306;2023-06-19T01:11:36;23.70;77.90
8707;DHT22;4390;49.302;9.306;2023-06-19T01:14:30;23.70;77.90
8707;DHT22;4390;49.302;9.306;2023-06-19T01:16:55;23.70;77.90
8707;DHT22;4390;49.302;9.306;2023-06-19T01:19:24;23.60;77.90
8707;DHT22;4390;49.302;9.306;2023-06-19T01:21:52;23.60;78.00
8707;DHT22;4390;49.302;9.306;2023-06-19T01:24:19;23.60;78.00
8707;DHT22;4390;49.302;9.306;2023-06-19T01:26:46;23.60;78.10
8707;DHT22;4390;49.302;9.306;2023-06-19T01:29:14;23.60;78.20
8707;DHT22;4390;49.302;9.306;2023-06-19T01:31:50;23.60;78.30
8707;DHT22;4390;49.302;9.306;2023-06-19T01:34:19;23.50;78.40
8707;DHT22;4390;49.302;9.306;2023-06-19T01:36:48;23.50;78.50
8707;DHT22;4390;49.302;9.306;2023-06-19T01:39:18;23.50;78.60
8707;DHT22;4390;49.302;9.306;2023-06-19T01:41:45;23.50;78.60
8707;DHT22;4390;49.302;9.306;2023-06-19T01:44:13;23.60;78.60
8707;DHT22;4390;49.302;9.306;2023-06-19T01:46:40;23.60;78.70
8707;DHT22;4390;49.302;9.306;2023-06-19T01:49:08;23.60;78.60
8707;DHT22;4390;49.302;9.306;2023-06-19T01:51:36;23.60;78.60
8707;DHT22;4390;49.302;9.306;2023-06-19T01:54:03;23.50;78.60
8707;DHT22;4390;49.302;9.306;2023-06-19T01:56:31;23.50;78.70
8707;DHT22;4390;49.302;9.306;2023-06-19T01:58:58;23.50;78.70
8707;DHT22;4390;49.302;9.306;2023-06-19T02:01:24;23.50;78.80
8707;DHT22;4390;49.302;9.306;2023-06-19T02:03:51;23.50;78.70
8707;DHT22;4390;49.302;9.306;2023-06-19T02:06:19;23.50;78.80
8707;DHT22;4390;49.302;9.306;2023-06-19T02:08:46;23.50;78.70
8707;DHT22;4390;49.302;9.306;2023-06-19T02:11:13;23.40;78.70
8707;DHT22;4390;49.302;9.306;2023-06-19T02:13:39;23.40;78.70
8707;DHT22;4390;49.302;9.306;2023-06-19T02:16:06;23.40;78.70
8707;DHT22;4390;49.302;9.306;2023-06-19T02:18:33;23.50;78.60
8707;DHT22;4390;49.302;9.306;2023-06-19T02:21:00;23.50;78.70
8707;DHT22;4390;49.302;9.306;2023-06-19T02:23:27;23.50;78.70
8707;DHT22;4390;49.302;9.306;2023-06-19T02:25:54;23.50;78.60
8707;DHT22;4390;49.302;9.306;2023-06-19T02:28:21;23.50;78.60
8707;DHT22;4390;49.302;9.306;2023-06-19T02:30:49;23.40;78.70
8707;DHT22;4390;49.302;9.306;2023-06-19T02:33:15;23.40;78.70
8707;DHT22;4390;49.302;9.306;2023-06-19T02:35:42;23.50;78.70
8707;DHT22;4390;49.302;9.306;2023-06-19T02:38:11;23.50;78.70
8707;DHT22;4390;49.302;9.306;2023-06-19T02:40:41;23.40;78.80
8707;DHT22;4390;49.302;9.306;2023-06-19T02:43:09;23.50;78.70
8707;DHT22;4390;49.302;9.306;2023-06-19T02:45:36;23.50;78.80
8707;DHT22;4390;49.302;9.306;2023-06-19T02:48:04;23.50;78.80
8707;DHT22;4390;49.302;9.306;2023-06-19T02:50:31;23.40;78.80
8707;DHT22;4390;49.302;9.306;2023-06-19T02:52:58;23.50;78.90
8707;DHT22;4390;49.302;9.306;2023-06-19T02:55:25;23.40;78.90
8707;DHT22;4390;49.302;9.306;2023-06-19T02:57:52;23.50;78.90
8707;DHT22;4390;49.302;9.306;2023-06-19T03:00:19;23.40;79.00
8707;DHT22;4390;49.302;9.306;2023-06-19T03:02:46;23.40;79.10
8707;DHT22;4390;49.302;9.306;2023-06-19T03:05:15;23.40;79.10
8707;DHT22;4390;49.302;9.306;2023-06-19T03:07:42;23.40;79.30
8707;DHT22;4390;49.302;9.306;2023-06-19T03:10:09;23.40;79.30
8707;DHT22;4390;49.302;9.306;2023-06-19T03:12:36;23.40;79.30
8707;DHT22;4390;49.302;9.306;2023-06-19T03:15:03;23.40;79.30
8707;DHT22;4390;49.302;9.306;2023-06-19T03:17:32;23.40;79.30
8707;DHT22;4390;49.302;9.306;2023-06-19T03:19:59;23.40;79.40
8707;DHT22;4390;49.302;9.306;2023-06-19T03:22:26;23.40;79.50
8707;DHT22;4390;49.302;9.306;2023-06-19T03:24:53;23.40;79.70
8707;DHT22;4390;49.302;9.306;2023-06-19T03:27:21;23.40;79.70
8707;DHT22;4390;49.302;9.306;2023-06-19T03:29:48;23.40;79.80
8707;DHT22;4390;49.302;9.306;2023-06-19T03:32:21;23.40;80.00
8707;DHT22;4390;49.302;9.306;2023-06-19T03:34:48;23.40;80.00
8707;DHT22;4390;49.302;9.306;2023-06-19T03:37:16;23.40;80.20
8707;DHT22;4390;49.302;9.306;2023-06-19T03:39:43;23.40;80.20
8707;DHT22;4390;49.302;9.306;2023-06-19T03:42:11;23.40;80.20
8707;DHT22;4390;49.302;9.306;2023-06-19T03:44:38;23.50;80.10
8707;DHT22;4390;49.302;9.306;2023-06-19T03:47:06;23.40;80.20
8707;DHT22;4390;49.302;9.306;2023-06-19T03:49:33;23.40;80.40
8707;DHT22;4390;49.302;9.306;2023-06-19T03:51:59;23.40;80.40
8707;DHT22;4390;49.302;9.306;2023-06-19T03:54:26;23.40;80.70
8707;DHT22;4390;49.302;9.306;2023-06-19T03:56:53;23.30;80.90
8707;DHT22;4390;49.302;9.306;2023-06-19T03:59:20;23.30;81.20
8707;DHT22;4390;49.302;9.306;2023-06-19T04:01:47;23.20;81.40
8707;DHT22;4390;49.302;9.306;2023-06-19T04:04:15;23.20;81.60
8707;DHT22;4390;49.302;9.306;2023-06-19T04:06:42;23.20;81.90
8707;DHT22;4390;49.302;9.306;2023-06-19T04:09:09;23.20;82.30
8707;DHT22;4390;49.302;9.306;2023-06-19T04:11:36;23.10;82.60
8707;DHT22;4390;49.302;9.306;2023-06-19T04:14:03;23.10;82.80
8707;DHT22;4390;49.302;9.306;2023-06-19T04:16:29;23.10;82.80
8707;DHT22;4390;49.302;9.306;2023-06-19T04:18:56;23.10;82.90
8707;DHT22;4390;49.302;9.306;2023-06-19T04:21:23;23.10;83.00
8707;DHT22;4390;49.302;9.306;2023-06-19T04:23:50;23.10;83.00
8707;DHT22;4390;49.302;9.306;2023-06-19T04:26:17;23.10;83.10
8707;DHT22;4390;49.302;9.306;2023-06-19T04:28:44;23.10;83.30
8707;DHT22;4390;49.302;9.306;2023-06-19T04:31:11;23.10;83.40
8707;DHT22;4390;49.302;9.306;2023-06-19T04:33:38;23.10;83.40
8707;DHT22;4390;49.302;9.306;2023-06-19T04:36:07;23.10;83.40
8707;DHT22;4390;49.302;9.306;2023-06-19T04:38:36;23.10;83.40
8707;DHT22;4390;49.302;9.306;2023-06-19T04:41:03;23.10;83.50
8707;DHT22;4390;49.302;9.306;2023-06-19T04:43:30;23.00;83.70
8707;DHT22;4390;49.302;9.306;2023-06-19T04:45:56;23.00;83.80
8707;DHT22;4390;49.302;9.306;2023-06-19T04:48:23;23.00;83.90
8707;DHT22;4390;49.302;9.306;2023-06-19T04:50:52;23.00;84.00
8707;DHT22;4390;49.302;9.306;2023-06-19T04:53:19;23.00;84.10
8707;DHT22;4390;49.302;9.306;2023-06-19T04:55:45;23.00;84.30
8707;DHT22;4390;49.302;9.306;2023-06-19T04:58:12;23.00;84.40
8707;DHT22;4390;49.302;9.306;2023-06-19T05:00:39;22.90;84.30
8707;DHT22;4390;49.302;9.306;2023-06-19T05:03:06;22.90;84.50
8707;DHT22;4390;49.302;9.306;2023-06-19T05:05:32;22.90;84.50
8707;DHT22;4390;49.302;9.306;2023-06-19T05:08:00;23.00;84.40
8707;DHT22;4390;49.302;9.306;2023-06-19T05:10:26;23.00;84.50
8707;DHT22;4390;49.302;9.306;2023-06-19T05:12:53;22.90;84.70
8707;DHT22;4390;49.302;9.306;2023-06-19T05:15:20;22.90;84.80
8707;DHT22;4390;49.302;9.306;2023-06-19T05:17:47;23.00;84.70
8707;DHT22;4390;49.302;9.306;2023-06-19T05:20:14;23.10;84.50
8707;DHT22;4390;49.302;9.306;2023-06-19T05:22:41;23.00;84.50
8707;DHT22;4390;49.302;9.306;2023-06-19T05:25:08;22.90;84.70
8707;DHT22;4390;49.302;9.306;2023-06-19T05:27:35;22.90;84.80
8707;DHT22;4390;49.302;9.306;2023-06-19T05:30:02;22.90;84.80
8707;DHT22;4390;49.302;9.306;2023-06-19T05:32:29;22.90;84.90
8707;DHT22;4390;49.302;9.306;2023-06-19T05:34:56;22.90;84.90
8707;DHT22;4390;49.302;9.306;2023-06-19T05:37:23;22.90;85.00
8707;DHT22;4390;49.302;9.306;2023-06-19T05:39:50;22.90;85.00
8707;DHT22;4390;49.302;9.306;2023-06-19T05:42:16;22.90;85.10
8707;DHT22;4390;49.302;9.306;2023-06-19T05:44:43;22.90;85.10
8707;DHT22;4390;49.302;9.306;2023-06-19T05:47:10;22.90;85.20
8707;DHT22;4390;49.302;9.306;2023-06-19T05:49:38;22.90;85.30
8707;DHT22;4390;49.302;9.306;2023-06-19T05:52:07;22.90;85.30
8707;DHT22;4390;49.302;9.306;2023-06-19T05:54:34;22.90;85.30
8707;DHT22;4390;49.302;9.306;2023-06-19T05:57:01;22.90;85.30
8707;DHT22;4390;49.302;9.306;2023-06-19T05:59:28;22.90;85.30
8707;DHT22;4390;49.302;9.306;2023-06-19T06:01:55;22.90;85.30
8707;DHT22;4390;49.302;9.306;2023-06-19T06:04:22;22.90;85.40
8707;DHT22;4390;49.302;9.306;2023-06-19T06:06:49;23.00;85.40
8707;DHT22;4390;49.302;9.306;2023-06-19T06:09:16;23.00;85.50
8707;DHT22;4390;49.302;9.306;2023-06-19T06:11:42;22.90;85.60
8707;DHT22;4390;49.302;9.306;2023-06-19T06:14:09;22.90;85.70
8707;DHT22;4390;49.302;9.306;2023-06-19T06:16:39;22.90;85.70
8707;DHT22;4390;49.302;9.306;2023-06-19T06:19:06;22.90;85.60
8707;DHT22;4390;49.302;9.306;2023-06-19T06:21:33;23.00;85.60
8707;DHT22;4390;49.302;9.306;2023-06-19T06:24:01;23.00;85.70
8707;DHT22;4390;49.302;9.306;2023-06-19T06:26:28;23.00;85.70
8707;DHT22;4390;49.302;9.306;2023-06-19T06:28:55;23.00;85.80
8707;DHT22;4390;49.302;9.306;2023-06-19T06:31:22;22.90;85.80
8707;DHT22;4390;49.302;9.306;2023-06-19T06:33:50;23.00;85.80
8707;DHT22;4390;49.302;9.306;2023-06-19T06:36:16;23.00;85.70
8707;DHT22;4390;49.302;9.306;2023-06-19T06:39:00;23.10;85.50
8707;DHT22;4390;49.302;9.306;2023-06-19T06:41:27;23.10;85.60
8707;DHT22;4390;49.302;9.306;2023-06-19T06:43:54;23.00;85.70
8707;DHT22;4390;49.302;9.306;2023-06-19T06:46:21;23.00;85.70
8707;DHT22;4390;49.302;9.306;2023-06-19T06:48:49;23.00;85.70
8707;DHT22;4390;49.302;9.306;2023-06-19T06:51:16;23.00;85.90
8707;DHT22;4390;49.302;9.306;2023-06-19T06:53:43;23.00;86.10
8707;DHT22;4390;49.302;9.306;2023-06-19T06:56:10;23.00;85.80
8707;DHT22;4390;49.302;9.306;2023-06-19T06:58:37;23.00;85.90
8707;DHT22;4390;49.302;9.306;2023-06-19T07:01:05;23.00;85.90
8707;DHT22;4390;49.302;9.306;2023-06-19T07:03:31;23.10;85.90
8707;DHT22;4390;49.302;9.306;2023-06-19T07:05:59;23.10;85.90
8707;DHT22;4390;49.302;9.306;2023-06-19T07:08:25;23.10;85.90
8707;DHT22;4390;49.302;9.306;2023-06-19T07:10:52;23.10;85.80
8707;DHT22;4390;49.302;9.306;2023-06-19T07:13:19;23.10;85.70
8707;DHT22;4390;49.302;9.306;2023-06-19T07:15:46;23.10;85.80
8707;DHT22;4390;49.302;9.306;2023-06-19T07:18:13;23.20;85.80
8707;DHT22;4390;49.302;9.306;2023-06-19T07:20:40;23.20;85.80
8707;DHT22;4390;49.302;9.306;2023-06-19T07:23:07;23.20;86.10
8707;DHT22;4390;49.302;9.306;2023-06-19T07:25:34;23.20;85.90
8707;DHT22;4390;49.302;9.306;2023-06-19T07:28:00;23.20;85.90
8707;DHT22;4390;49.302;9.306;2023-06-19T07:30:27;23.20;86.00
8707;DHT22;4390;49.302;9.306;2023-06-19T07:32:54;23.30;85.80
8707;DHT22;4390;49.302;9.306;2023-06-19T07:35:21;23.30;85.60
8707;DHT22;4390;49.302;9.306;2023-06-19T07:37:48;23.40;85.80
8707;DHT22;4390;49.302;9.306;2023-06-19T07:40:15;23.40;85.30
8707;DHT22;4390;49.302;9.306;2023-06-19T07:42:42;23.40;85.40
8707;DHT22;4390;49.302;9.306;2023-06-19T07:45:11;23.50;85.40
8707;DHT22;4390;49.302;9.306;2023-06-19T07:47:38;23.50;85.30
8707;DHT22;4390;49.302;9.306;2023-06-19T07:50:05;23.50;85.30
8707;DHT22;4390;49.302;9.306;2023-06-19T07:52:32;23.60;85.30
8707;DHT22;4390;49.302;9.306;2023-06-19T07:55:00;23.50;85.60
8707;DHT22;4390;49.302;9.306;2023-06-19T07:57:27;23.60;85.40
8707;DHT22;4390;49.302;9.306;2023-06-19T07:59:54;23.60;85.50
8707;DHT22;4390;49.302;9.306;2023-06-19T08:02:21;23.60;85.60
8707;DHT22;4390;49.302;9.306;2023-06-19T08:04:48;23.60;85.80
8707;DHT22;4390;49.302;9.306;2023-06-19T08:07:16;23.60;85.60
8707;DHT22;4390;49.302;9.306;2023-06-19T08:09:43;23.60;85.50
8707;DHT22;4390;49.302;9.306;2023-06-19T08:12:10;23.60;85.90
8707;DHT22;4390;49.302;9.306;2023-06-19T08:14:37;23.70;85.60
8707;DHT22;4390;49.302;9.306;2023-06-19T08:17:05;23.70;85.50
8707;DHT22;4390;49.302;9.306;2023-06-19T08:19:32;23.70;85.50
8707;DHT22;4390;49.302;9.306;2023-06-19T08:21:59;23.80;85.50
8707;DHT22;4390;49.302;9.306;2023-06-19T08:24:25;23.80;85.40
8707;DHT22;4390;49.302;9.306;2023-06-19T08:26:52;23.80;85.10
8707;DHT22;4390;49.302;9.306;2023-06-19T08:29:20;23.90;85.20
8707;DHT22;4390;49.302;9.306;2023-06-19T08:31:47;23.80;85.40
8707;DHT22;4390;49.302;9.306;2023-06-19T08:34:14;23.80;85.60
8707;DHT22;4390;49.302;9.306;2023-06-19T08:36:41;23.80;85.00
8707;DHT22;4390;49.302;9.306;2023-06-19T08:39:08;23.90;85.30
8707;DHT22;4390;49.302;9.306;2023-06-19T08:41:38;23.70;85.60
8707;DHT22;4390;49.302;9.306;2023-06-19T08:44:06;23.80;85.40
8707;DHT22;4390;49.302;9.306;2023-06-19T08:46:33;23.80;85.30
8707;DHT22;4390;49.302;9.306;2023-06-19T08:49:01;23.80;85.50
8707;DHT22;4390;49.302;9.306;2023-06-19T08:51:28;23.80;85.70
8707;DHT22;4390;49.302;9.306;2023-06-19T08:54:02;23.80;85.70
8707;DHT22;4390;49.302;9.306;2023-06-19T08:56:31;23.70;85.90
8707;DHT22;4390;49.302;9.306;2023-06-19T08:59:08;23.70;85.90
8707;DHT22;4390;49.302;9.306;2023-06-19T09:01:36;23.80;85.40
8707;DHT22;4390;49.302;9.306;2023-06-19T09:04:10;23.90;85.50
8707;DHT22;4390;49.302;9.306;2023-06-19T09:06:50;23.80;85.80
8707;DHT22;4390;49.302;9.306;2023-06-19T09:09:19;23.80;85.70
8707;DHT22;4390;49.302;9.306;2023-06-19T09:12:16;23.80;85.90
8707;DHT22;4390;49.302;9.306;2023-06-19T09:14:52;23.80;85.60
8707;DHT22;4390;49.302;9.306;2023-06-19T09:17:21;23.90;85.90
8707;DHT22;4390;49.302;9.306;2023-06-19T09:19:52;23.90;85.70
8707;DHT22;4390;49.302;9.306;2023-06-19T09:22:21;23.90;85.50
8707;DHT22;4390;49.302;9.306;2023-06-19T09:24:49;23.90;85.80
8707;DHT22;4390;49.302;9.306;2023-06-19T09:27:18;23.90;85.90
8707;DHT22;4390;49.302;9.306;2023-06-19T09:29:47;23.90;85.90
8707;DHT22;4390;49.302;9.306;2023-06-19T09:32:19;23.90;85.90
8707;DHT22;4390;49.302;9.306;2023-06-19T09:34:48;23.90;85.60
8707;DHT22;4390;49.302;9.306;2023-06-19T09:37:23;23.90;85.60
8707;DHT22;4390;49.302;9.306;2023-06-19T09:39:55;24.00;85.40
8707;DHT22;4390;49.302;9.306;2023-06-19T09:42:33;24.00;85.50
8707;DHT22;4390;49.302;9.306;2023-06-19T09:45:02;24.00;85.30
8707;DHT22;4390;49.302;9.306;2023-06-19T09:47:51;24.10;85.20
8707;DHT22;4390;49.302;9.306;2023-06-19T09:50:19;24.10;85.30
8707;DHT22;4390;49.302;9.306;2023-06-19T09:52:49;24.00;85.60
8707;DHT22;4390;49.302;9.306;2023-06-19T09:55:19;24.00;85.50
8707;DHT22;4390;49.302;9.306;2023-06-19T09:57:46;24.10;85.50
8707;DHT22;4390;49.302;9.306;2023-06-19T10:00:15;24.10;85.20
8707;DHT22;4390;49.302;9.306;2023-06-19T10:02:46;24.10;85.40
8707;DHT22;4390;49.302;9.306;2023-06-19T10:05:14;24.10;85.60
8707;DHT22;4390;49.302;9.306;2023-06-19T10:07:43;24.10;85.50
8707;DHT22;4390;49.302;9.306;2023-06-19T10:10:23;24.20;85.30
8707;DHT22;4390;49.302;9.306;2023-06-19T10:12:50;24.10;85.50
8707;DHT22;4390;49.302;9.306;2023-06-19T10:15:27;24.10;85.50
8707;DHT22;4390;49.302;9.306;2023-06-19T10:18:00;24.00;85.80
8707;DHT22;4390;49.302;9.306;2023-06-19T10:25:40;24.20;86.00
8707;DHT22;4390;49.302;9.306;2023-06-19T10:28:22;24.20;86.00
8707;DHT22;4390;49.302;9.306;2023-06-19T10:31:08;24.20;85.80
8707;DHT22;4390;49.302;9.306;2023-06-19T10:33:38;24.20;85.80
8707;DHT22;4390;49.302;9.306;2023-06-19T10:36:23;24.20;85.80
8707;DHT22;4390;49.302;9.306;2023-06-19T10:38:52;24.30;85.60
8707;DHT22;4390;49.302;9.306;2023-06-19T10:41:25;24.30;85.60
8707;DHT22;4390;49.302;9.306;2023-06-19T10:44:03;24.40;85.50
8707;DHT22;4390;49.302;9.306;2023-06-19T10:46:35;24.50;85.40
8707;DHT22;4390;49.302;9.306;2023-06-19T10:49:05;24.50;85.30
8707;DHT22;4390;49.302;9.306;2023-06-19T10:51:37;24.60;85.20
8707;DHT22;4390;49.302;9.306;2023-06-19T10:54:05;24.50;85.30
8707;DHT22;4390;49.302;9.306;2023-06-19T10:56:32;24.60;85.20
8707;DHT22;4390;49.302;9.306;2023-06-19T10:59:04;24.60;85.20
8707;DHT22;4390;49.302;9.306;2023-06-19T11:01:46;24.60;85.00
8707;DHT22;4390;49.302;9.306;2023-06-19T11:04:14;24.70;84.70
8707;DHT22;4390;49.302;9.306;2023-06-19T11:06:44;24.70;84.50
8707;DHT22;4390;49.302;9.306;2023-06-19T11:09:12;24.80;84.30
8707;DHT22;4390;49.302;9.306;2023-06-19T11:11:40;24.80;84.30
8707;DHT22;4390;49.302;9.306;2023-06-19T11:14:08;24.90;84.20
8707;DHT22;4390;49.302;9.306;2023-06-19T11:16:39;24.90;84.10
8707;DHT22;4390;49.302;9.306;2023-06-19T11:19:08;24.90;84.10
8707;DHT22;4390;49.302;9.306;2023-06-19T11:21:36;24.90;84.10
8707;DHT22;4390;49.302;9.306;2023-06-19T11:24:06;24.90;84.00
8707;DHT22;4390;49.302;9.306;2023-06-19T11:26:44;24.90;84.00
8707;DHT22;4390;49.302;9.306;2023-06-19T11:29:19;24.90;83.90
8707;DHT22;4390;49.302;9.306;2023-06-19T11:31:48;24.90;83.90
8707;DHT22;4390;49.302;9.306;2023-06-19T11:34:16;25.00;83.80
8707;DHT22;4390;49.302;9.306;2023-06-19T11:36:44;25.00;83.70
8707;DHT22;4390;49.302;9.306;2023-06-19T11:39:13;25.10;83.70
8707;DHT22;4390;49.302;9.306;2023-06-19T11:41:43;25.10;83.60
8707;DHT22;4390;49.302;9.306;2023-06-19T11:44:10;25.10;83.50
8707;DHT22;4390;49.302;9.306;2023-06-19T11:46:38;25.10;83.40
8707;DHT22;4390;49.302;9.306;2023-06-19T11:49:17;25.20;83.20
8707;DHT22;4390;49.302;9.306;2023-06-19T11:51:46;25.20;83.40
8707;DHT22;4390;49.302;9.306;2023-06-19T11:54:14;25.20;83.40
8707;DHT22;4390;49.302;9.306;2023-06-19T11:56:41;25.10;83.40
8707;DHT22;4390;49.302;9.306;2023-06-19T11:59:08;25.20;83.40
8707;DHT22;4390;49.302;9.306;2023-06-19T12:01:36;25.20;83.30
8707;DHT22;4390;49.302;9.306;2023-06-19T12:04:04;25.20;83.30
8707;DHT22;4390;49.302;9.306;2023-06-19T12:06:31;25.20;83.30
8707;DHT22;4390;49.302;9.306;2023-06-19T12:08:58;25.20;83.30
8707;DHT22;4390;49.302;9.306;2023-06-19T12:11:25;25.20;83.40
8707;DHT22;4390;49.302;9.306;2023-06-19T12:13:52;25.20;83.30
8707;DHT22;4390;49.302;9.306;2023-06-19T12:16:24;25.20;83.50
8707;DHT22;4390;49.302;9.306;2023-06-19T12:18:53;25.20;83.50
8707;DHT22;4390;49.302;9.306;2023-06-19T12:21:20;25.20;83.50
8707;DHT22;4390;49.302;9.306;2023-06-19T12:24:03;25.20;83.40
8707;DHT22;4390;49.302;9.306;2023-06-19T12:26:31;25.20;83.40
8707;DHT22;4390;49.302;9.306;2023-06-19T12:29:04;25.20;83.40
8707;DHT22;4390;49.302;9.306;2023-06-19T12:31:32;25.20;83.30
8707;DHT22;4390;49.302;9.306;2023-06-19T12:33:59;25.20;83.50
8707;DHT22;4390;49.302;9.306;2023-06-19T12:36:39;25.20;83.50
8707;DHT22;4390;49.302;9.306;2023-06-19T12:39:06;25.20;83.50
8707;DHT22;4390;49.302;9.306;2023-06-19T12:41:41;25.20;83.50
8707;DHT22;4390;49.302;9.306;2023-06-19T12:44:07;25.20;83.30
8707;DHT22;4390;49.302;9.306;2023-06-19T12:46:34;25.30;83.20
8707;DHT22;4390;49.302;9.306;2023-06-19T12:49:01;25.30;83.00
8707;DHT22;4390;49.302;9.306;2023-06-19T12:51:28;25.30;82.90
8707;DHT22;4390;49.302;9.306;2023-06-19T12:53:55;25.30;82.90
8707;DHT22;4390;49.302;9.306;2023-06-19T12:56:21;25.40;83.00
8707;DHT22;4390;49.302;9.306;2023-06-19T12:58:48;25.30;83.20
8707;DHT22;4390;49.302;9.306;2023-06-19T13:01:15;25.40;83.10
8707;DHT22;4390;49.302;9.306;2023-06-19T13:03:41;25.40;83.10
8707;DHT22;4390;49.302;9.306;2023-06-19T13:06:08;25.40;83.10
8707;DHT22;4390;49.302;9.306;2023-06-19T13:08:35;25.30;83.10
8707;DHT22;4390;49.302;9.306;2023-06-19T13:11:05;25.30;83.20
8707;DHT22;4390;49.302;9.306;2023-06-19T13:13:31;25.40;83.10
8707;DHT22;4390;49.302;9.306;2023-06-19T13:15:58;25.40;82.90
8707;DHT22;4390;49.302;9.306;2023-06-19T13:18:25;25.40;82.70
8707;DHT22;4390;49.302;9.306;2023-06-19T13:20:51;25.40;82.50
8707;DHT22;4390;49.302;9.306;2023-06-19T13:23:18;25.40;82.50
8707;DHT22;4390;49.302;9.306;2023-06-19T13:25:45;25.40;82.50
8707;DHT22;4390;49.302;9.306;2023-06-19T13:28:12;25.40;82.30
8707;DHT22;4390;49.302;9.306;2023-06-19T13:30:38;25.40;82.30
8707;DHT22;4390;49.302;9.306;2023-06-19T13:33:05;25.40;82.30
8707;DHT22;4390;49.302;9.306;2023-06-19T13:35:33;25.40;82.30
8707;DHT22;4390;49.302;9.306;2023-06-19T13:38:00;25.40;82.30
8707;DHT22;4390;49.302;9.306;2023-06-19T13:40:26;25.40;82.20
8707;DHT22;4390;49.302;9.306;2023-06-19T13:42:53;25.40;82.20
8707;DHT22;4390;49.302;9.306;2023-06-19T13:45:21;25.40;82.20
8707;DHT22;4390;49.302;9.306;2023-06-19T13:47:47;25.40;82.20
8707;DHT22;4390;49.302;9.306;2023-06-19T13:50:14;25.40;82.10
8707;DHT22;4390;49.302;9.306;2023-06-19T13:52:47;25.40;82.00
8707;DHT22;4390;49.302;9.306;2023-06-19T13:55:14;25.40;81.90
8707;DHT22;4390;49.302;9.306;2023-06-19T13:57:42;25.40;81.80
8707;DHT22;4390;49.302;9.306;2023-06-19T14:00:10;25.40;81.70
8707;DHT22;4390;49.302;9.306;2023-06-19T14:02:41;25.40;81.70
8707;DHT22;4390;49.302;9.306;2023-06-19T14:05:09;25.40;81.80
8707;DHT22;4390;49.302;9.306;2023-06-19T14:07:36;25.40;81.80
8707;DHT22;4390;49.302;9.306;2023-06-19T14:10:04;25.40;81.70
8707;DHT22;4390;49.302;9.306;2023-06-19T14:12:31;25.40;81.50
8707;DHT22;4390;49.302;9.306;2023-06-19T14:14:58;25.40;81.40
8707;DHT22;4390;49.302;9.306;2023-06-19T14:17:25;25.50;81.20
8707;DHT22;4390;49.302;9.306;2023-06-19T14:19:53;25.50;81.10
8707;DHT22;4390;49.302;9.306;2023-06-19T14:22:22;25.50;81.10
8707;DHT22;4390;49.302;9.306;2023-06-19T14:24:49;25.50;81.10
8707;DHT22;4390;49.302;9.306;2023-06-19T14:27:16;25.50;81.00
8707;DHT22;4390;49.302;9.306;2023-06-19T14:29:43;25.50;81.00
8707;DHT22;4390;49.302;9.306;2023-06-19T14:32:10;25.50;81.00
8707;DHT22;4390;49.302;9.306;2023-06-19T14:34:36;25.50;81.10
8707;DHT22;4390;49.302;9.306;2023-06-19T14:37:03;25.50;81.10
8707;DHT22;4390;49.302;9.306;2023-06-19T14:39:30;25.50;81.10
8707;DHT22;4390;49.302;9.306;2023-06-19T14:41:56;25.50;81.10
8707;DHT22;4390;49.302;9.306;2023-06-19T14:44:23;25.50;81.20
8707;DHT22;4390;49.302;9.306;2023-06-19T14:46:50;25.50;81.20
8707;DHT22;4390;49.302;9.306;2023-06-19T14:49:17;25.50;81.20
8707;DHT22;4390;49.302;9.306;2023-06-19T14:51:44;25.50;81.20
8707;DHT22;4390;49.302;9.306;2023-06-19T14:54:10;25.50;81.20
8707;DHT22;4390;49.302;9.306;2023-06-19T14:56:37;25.60;81.10
8707;DHT22;4390;49.302;9.306;2023-06-19T14:59:04;25.60;81.10
8707;DHT22;4390;49.302;9.306;2023-06-19T15:01:31;25.60;81.10
8707;DHT22;4390;49.302;9.306;2023-06-19T15:03:57;25.60;81.10
8707;DHT22;4390;49.302;9.306;2023-06-19T15:06:25;25.70;81.00
8707;DHT22;4390;49.302;9.306;2023-06-19T15:08:52;25.70;80.80
8707;DHT22;4390;49.302;9.306;2023-06-19T15:11:18;25.70;80.70
8707;DHT22;4390;49.302;9.306;2023-06-19T15:13:45;25.70;80.80
8707;DHT22;4390;49.302;9.306;2023-06-19T15:16:12;25.70;80.80
8707;DHT22;4390;49.302;9.306;2023-06-19T15:18:40;25.70;80.80
8707;DHT22;4390;49.302;9.306;2023-06-19T15:21:07;25.70;80.90
8707;DHT22;4390;49.302;9.306;2023-06-19T15:23:34;25.70;80.90
8707;DHT22;4390;49.302;9.306;2023-06-19T15:26:01;25.70;81.00
8707;DHT22;4390;49.302;9.306;2023-06-19T15:28:28;25.70;81.10
8707;DHT22;4390;49.302;9.306;2023-06-19T15:30:54;25.70;81.10
8707;DHT22;4390;49.302;9.306;2023-06-19T15:33:21;25.70;81.10
8707;DHT22;4390;49.302;9.306;2023-06-19T15:35:48;25.80;81.00
8707;DHT22;4390;49.302;9.306;2023-06-19T15:38:16;25.70;81.10
8707;DHT22;4390;49.302;9.306;2023-06-19T15:40:43;25.80;81.10
8707;DHT22;4390;49.302;9.306;2023-06-19T15:43:10;25.80;81.10
8707;DHT22;4390;49.302;9.306;2023-06-19T15:45:37;25.80;81.10
8707;DHT22;4390;49.302;9.306;2023-06-19T15:48:05;25.80;81.20
8707;DHT22;4390;49.302;9.306;2023-06-19T15:50:32;25.80;81.10
8707;DHT22;4390;49.302;9.306;2023-06-19T15:53:02;25.80;81.10
8707;DHT22;4390;49.302;9.306;2023-06-19T15:55:28;25.80;81.10
8707;DHT22;4390;49.302;9.306;2023-06-19T15:57:55;25.80;81.00
8707;DHT22;4390;49.302;9.306;2023-06-19T16:00:23;25.90;80.90
8707;DHT22;4390;49.302;9.306;2023-06-19T16:02:51;25.90;80.70
8707;DHT22;4390;49.302;9.306;2023-06-19T16:05:18;25.90;80.60
8707;DHT22;4390;49.302;9.306;2023-06-19T16:07:45;26.00;80.40
8707;DHT22;4390;49.302;9.306;2023-06-19T16:10:14;26.00;80.40
8707;DHT22;4390;49.302;9.306;2023-06-19T16:12:46;26.00;80.50
8707;DHT22;4390;49.302;9.306;2023-06-19T16:15:16;25.90;80.60